Time;durP1;ratioP1;P1;durP2;ratioP2;P2;SDS_P1;SDS_P2;PMS_P1;PMS_P2;Temp;Humidity;BMP_temperature;BMP_pressure;BME280_temperature;BME280_humidity;BME280_pressure;Samples;Min_cycle;Max_cycle;Signal;HPM_P1;HPM_P2
2022/11/09 00:01:03;;;;;;;;;;;13.90;99.90;;;;;;12563527;28;19928;-38
2022/11/09 00:07:05;;;;;;;;;;;13.90;99.90;;;;;;12564991;28;20023;-38
2022/11/09 00:13:06;;;;;;;;;;;13.90;99.90;;;;;;12555926;28;20392;-38
2022/11/09 00:19:08;;;;;;;;;;;14.00;99.90;;;;;;12569709;28;20222;-38
2022/11/09 00:25:10;;;;;;;;;;;13.90;99.90;;;;;;12559305;28;20379;-38
2022/11/09 00:31:16;;;;;;;;;;;13.90;99.90;;;;;;12555217;28;20395;-39
2022/11/09 00:37:18;;;;;;;;;;;13.90;99.90;;;;;;12552246;28;20015;-38
2022/11/09 00:43:19;;;;;;;;;;;14.00;99.90;;;;;;12570853;28;19931;-38
2022/11/09 00:49:22;;;;;;;;;;;13.90;99.90;;;;;;12561004;28;20315;-39
2022/11/09 00:55:23;;;;;;;;;;;13.90;99.90;;;;;;12574335;28;20368;-38
2022/11/09 01:01:25;;;;;;;;;;;13.90;99.90;;;;;;12569026;28;19973;-38
2022/11/09 01:07:27;;;;;;;;;;;14.00;99.90;;;;;;12570273;28;19978;-38
2022/11/09 01:13:29;;;;;;;;;;;14.00;99.90;;;;;;12563467;28;20384;-39
2022/11/09 01:19:30;;;;;;;;;;;14.00;99.90;;;;;;12577356;28;19929;-38
2022/11/09 01:25:32;;;;;;;;;;;14.00;99.90;;;;;;12576062;28;20380;-38
2022/11/09 01:31:34;;;;;;;;;;;14.00;99.90;;;;;;12571030;28;19932;-38
2022/11/09 01:37:35;;;;;;;;;;;14.10;99.90;;;;;;12553620;28;19936;-38
2022/11/09 01:43:37;;;;;;;;;;;14.10;99.90;;;;;;12565093;28;19973;-38
2022/11/09 01:49:45;;;;;;;;;;;14.10;99.90;;;;;;12563276;28;19948;-38
2022/11/09 01:55:50;;;;;;;;;;;14.20;99.90;;;;;;12573482;28;19924;-38
2022/11/09 02:01:52;;;;;;;;;;;14.20;99.90;;;;;;12564732;28;19933;-38
2022/11/09 02:07:55;;;;;;;;;;;14.20;99.90;;;;;;12577819;28;19978;-38
2022/11/09 02:13:59;;;;;;;;;;;14.30;99.90;;;;;;12567283;28;19936;-38
2022/11/09 02:20:05;;;;;;;;;;;14.30;99.90;;;;;;12575959;28;19984;-38
2022/11/09 02:26:09;;;;;;;;;;;14.30;99.90;;;;;;12570949;28;20368;-38
2022/11/09 02:32:21;;;;;;;;;;;14.30;99.90;;;;;;12569755;28;20538;-39
2022/11/09 02:38:23;;;;;;;;;;;14.30;99.90;;;;;;12571076;28;19924;-39
2022/11/09 02:44:27;;;;;;;;;;;14.30;99.90;;;;;;12572422;28;19935;-38
2022/11/09 02:50:29;;;;;;;;;;;14.30;99.90;;;;;;12560432;28;19924;-39
2022/11/09 02:56:30;;;;;;;;;;;14.30;99.90;;;;;;12575973;28;19977;-38
2022/11/09 03:02:32;;;;;;;;;;;14.20;99.90;;;;;;12576336;28;19936;-38
2022/11/09 03:08:34;;;;;;;;;;;14.30;99.90;;;;;;12562478;28;19929;-38
2022/11/09 03:14:35;;;;;;;;;;;14.20;99.90;;;;;;12569075;28;20322;-38
2022/11/09 03:20:37;;;;;;;;;;;14.30;99.90;;;;;;12568127;28;20377;-38
2022/11/09 03:26:39;;;;;;;;;;;14.30;99.90;;;;;;12558577;28;20284;-38
2022/11/09 03:32:40;;;;;;;;;;;14.20;99.90;;;;;;12569500;28;19939;-38
2022/11/09 03:38:47;;;;;;;;;;;14.10;99.90;;;;;;12561945;28;19931;-38
2022/11/09 03:44:49;;;;;;;;;;;14.10;99.90;;;;;;12566223;28;19971;-38
2022/11/09 03:50:50;;;;;;;;;;;14.10;99.90;;;;;;12555060;28;19929;-38
2022/11/09 03:56:52;;;;;;;;;;;14.00;99.90;;;;;;12558722;28;19997;-38
2022/11/09 04:02:54;;;;;;;;;;;14.00;99.90;;;;;;12558297;28;19924;-38
2022/11/09 04:08:56;;;;;;;;;;;14.00;99.90;;;;;;12550398;28;20273;-38
2022/11/09 04:14:58;;;;;;;;;;;14.00;99.90;;;;;;12555074;28;19925;-38
2022/11/09 04:20:59;;;;;;;;;;;13.90;99.90;;;;;;12569192;28;19925;-38
2022/11/09 04:27:01;;;;;;;;;;;13.80;99.90;;;;;;12554548;28;19950;-38
2022/11/09 04:33:03;;;;;;;;;;;13.80;99.90;;;;;;12549692;28;19933;-38
2022/11/09 04:39:05;;;;;;;;;;;13.70;99.90;;;;;;12557792;28;19936;-38
2022/11/09 04:45:07;;;;;;;;;;;13.70;99.90;;;;;;12552817;28;19968;-38
2022/11/09 04:51:12;;;;;;;;;;;13.70;99.90;;;;;;12551218;28;19931;-38
2022/11/09 04:57:13;;;;;;;;;;;13.70;99.90;;;;;;12561161;28;19924;-38
2022/11/09 05:03:15;;;;;;;;;;;13.70;99.90;;;;;;12549638;28;20070;-38
2022/11/09 05:09:17;;;;;;;;;;;13.70;99.90;;;;;;12558866;28;19935;-38
2022/11/09 05:15:19;;;;;;;;;;;13.70;99.90;;;;;;12554872;28;19932;-38
2022/11/09 05:21:21;;;;;;;;;;;13.60;99.90;;;;;;12561615;28;19932;-38
2022/11/09 05:27:23;;;;;;;;;;;13.70;99.90;;;;;;12555657;28;19935;-39
2022/11/09 05:33:24;;;;;;;;;;;13.80;99.90;;;;;;12550691;28;20300;-38
2022/11/09 05:39:26;;;;;;;;;;;13.80;99.90;;;;;;12569257;28;19929;-38
2022/11/09 05:45:28;;;;;;;;;;;13.80;99.90;;;;;;12555857;28;20002;-38
2022/11/09 05:51:44;;;;;;;;;;;13.80;99.90;;;;;;12557615;28;20376;-39
2022/11/09 05:57:45;;;;;;;;;;;13.80;99.90;;;;;;12559442;28;19939;-38
2022/11/09 06:03:47;;;;;;;;;;;13.70;99.90;;;;;;12556514;28;19924;-38
2022/11/09 06:09:49;;;;;;;;;;;13.70;99.90;;;;;;12564657;28;20334;-38
2022/11/09 06:15:52;;;;;;;;;;;13.70;99.90;;;;;;12565798;28;20428;-38
2022/11/09 06:21:54;;;;;;;;;;;13.70;99.90;;;;;;12566801;28;19924;-38
2022/11/09 06:27:57;;;;;;;;;;;13.80;99.90;;;;;;12553032;28;19924;-38
2022/11/09 06:33:58;;;;;;;;;;;13.70;99.90;;;;;;12566761;28;19929;-38
2022/11/09 06:40:00;;;;;;;;;;;13.70;99.90;;;;;;12555984;28;20342;-38
2022/11/09 06:46:03;;;;;;;;;;;13.60;99.90;;;;;;12557736;28;20386;-38
2022/11/09 06:52:05;;;;;;;;;;;13.60;99.90;;;;;;12561889;28;19932;-38
2022/11/09 06:58:08;;;;;;;;;;;13.60;99.90;;;;;;12559935;28;19951;-38
2022/11/09 07:04:11;;;;;;;;;;;13.70;99.90;;;;;;12571333;28;20415;-38
2022/11/09 07:10:13;;;;;;;;;;;13.70;99.90;;;;;;12564064;28;20323;-38
2022/11/09 07:16:18;;;;;;;;;;;13.90;99.90;;;;;;12576193;28;19935;-38
2022/11/09 07:22:19;;;;;;;;;;;13.90;99.90;;;;;;12570048;28;19925;-39
2022/11/09 07:28:21;;;;;;;;;;;13.80;99.90;;;;;;12555471;28;20403;-38
2022/11/09 07:34:23;;;;;;;;;;;13.80;99.90;;;;;;12559937;28;20315;-38
2022/11/09 07:40:24;;;;;;;;;;;13.70;99.90;;;;;;12564341;28;19931;-38
2022/11/09 07:46:26;;;;;;;;;;;13.70;99.90;;;;;;12556110;28;20272;-38
2022/11/09 07:52:28;;;;;;;;;;;13.70;99.90;;;;;;12563257;28;19925;-38
2022/11/09 07:58:30;;;;;;;;;;;13.70;99.90;;;;;;12561734;28;19990;-38
2022/11/09 08:04:32;;;;;;;;;;;13.80;99.90;;;;;;12548713;28;19934;-38
2022/11/09 08:10:34;;;;;;;;;;;13.80;99.90;;;;;;12558625;28;20284;-38
2022/11/09 08:16:36;;;;;;;;;;;13.90;99.90;;;;;;12564164;28;20045;-38
2022/11/09 08:22:41;;;;;;;;;;;13.80;99.90;;;;;;12562325;28;19972;-38
2022/11/09 08:28:43;;;;;;;;;;;13.80;99.90;;;;;;12553642;28;20383;-38
2022/11/09 08:34:45;;;;;;;;;;;13.80;99.90;;;;;;12550631;28;20269;-38
2022/11/09 08:40:47;;;;;;;;;;;13.70;99.90;;;;;;12559977;28;19925;-38
2022/11/09 08:46:49;;;;;;;;;;;13.70;99.90;;;;;;12556457;28;19931;-38
2022/11/09 08:52:50;;;;;;;;;;;13.70;99.90;;;;;;12558388;28;19932;-38
2022/11/09 08:58:52;;;;;;;;;;;13.80;99.90;;;;;;12547999;28;20291;-39
2022/11/09 09:04:54;;;;;;;;;;;13.70;99.90;;;;;;12556903;28;20030;-38
2022/11/09 09:10:56;;;;;;;;;;;13.80;99.90;;;;;;12560339;28;20384;-38
2022/11/09 09:16:58;;;;;;;;;;;13.80;99.90;;;;;;12556047;28;19931;-39
2022/11/09 09:23:00;;;;;;;;;;;13.80;99.90;;;;;;12565933;28;19925;-38
2022/11/09 09:29:02;;;;;;;;;;;13.80;99.90;;;;;;12566473;28;19937;-38
2022/11/09 09:35:04;;;;;;;;;;;14.00;99.90;;;;;;12565668;28;19940;-38
2022/11/09 09:41:06;;;;;;;;;;;14.20;99.90;;;;;;12563050;28;20284;-38
2022/11/09 09:47:18;;;;;;;;;;;14.40;99.90;;;;;;12573066;28;19928;-38
2022/11/09 09:53:28;;;;;;;;;;;14.60;99.90;;;;;;12568401;28;19932;-39
2022/11/09 09:59:40;;;;;;;;;;;14.80;99.90;;;;;;12548994;28;20296;-38
2022/11/09 10:05:44;;;;;;;;;;;14.50;99.90;;;;;;12550420;28;20288;-39
2022/11/09 10:11:46;;;;;;;;;;;14.30;99.90;;;;;;12570814;28;19925;-38
2022/11/09 10:17:54;;;;;;;;;;;14.40;99.90;;;;;;12575400;28;19931;-38
2022/11/09 10:24:12;;;;;;;;;;;14.40;99.90;;;;;;12571781;28;19925;-38
2022/11/09 10:30:15;;;;;;;;;;;14.40;99.90;;;;;;12560584;28;19928;-38
2022/11/09 10:36:23;;;;;;;;;;;14.50;99.90;;;;;;12557991;28;19971;-38
2022/11/09 10:42:24;;;;;;;;;;;14.90;99.90;;;;;;12556560;28;19935;-39
2022/11/09 10:48:36;;;;;;;;;;;15.30;99.90;;;;;;12552744;28;19936;-38
2022/11/09 10:54:39;;;;;;;;;;;15.10;99.90;;;;;;12554703;28;19978;-39
2022/11/09 11:00:59;;;;;;;;;;;14.90;99.90;;;;;;12552669;28;19924;-38
2022/11/09 11:07:11;;;;;;;;;;;14.80;99.90;;;;;;12557354;28;19928;-38
2022/11/09 11:13:20;;;;;;;;;;;14.70;99.90;;;;;;12565780;28;19932;-38
2022/11/09 11:19:36;;;;;;;;;;;14.90;99.90;;;;;;12569079;28;19925;-38
2022/11/09 11:25:57;;;;;;;;;;;15.10;99.90;;;;;;12549853;28;20417;-38
2022/11/09 11:31:59;;;;;;;;;;;15.10;99.90;;;;;;12558024;28;19932;-38
2022/11/09 11:38:07;;;;;;;;;;;14.80;99.90;;;;;;12562533;28;19947;-39
2022/11/09 11:44:28;;;;;;;;;;;14.80;99.90;;;;;;12560313;28;19932;-38
2022/11/09 11:50:39;;;;;;;;;;;14.90;99.90;;;;;;12556789;28;20500;-38
2022/11/09 11:56:51;;;;;;;;;;;15.20;99.90;;;;;;12570337;28;19936;-38
2022/11/09 12:03:07;;;;;;;;;;;15.60;99.90;;;;;;12564749;28;19925;-39
2022/11/09 12:09:17;;;;;;;;;;;15.90;99.90;;;;;;12556023;28;19931;-38
2022/11/09 12:15:19;;;;;;;;;;;16.00;99.90;;;;;;12553300;28;19933;-39
2022/11/09 12:21:32;;;;;;;;;;;15.90;99.90;;;;;;12571819;28;19925;-38
2022/11/09 12:27:34;;;;;;;;;;;16.20;99.90;;;;;;12561847;28;20450;-38
2022/11/09 12:33:48;;;;;;;;;;;16.10;99.90;;;;;;12548866;28;19928;-39
2022/11/09 12:39:51;;;;;;;;;;;15.80;99.90;;;;;;12548847;28;19925;-38
2022/11/09 12:45:53;;;;;;;;;;;15.50;99.90;;;;;;12543933;28;19946;-38
2022/11/09 12:51:55;;;;;;;;;;;15.50;99.90;;;;;;12579562;28;20398;-38
2022/11/09 12:57:59;;;;;;;;;;;15.60;99.90;;;;;;12567406;28;19975;-38
2022/11/09 13:04:02;;;;;;;;;;;15.10;99.90;;;;;;12553595;28;19925;-38
2022/11/09 13:10:04;;;;;;;;;;;14.80;99.90;;;;;;12565582;28;19935;-38
2022/11/09 13:16:11;;;;;;;;;;;14.80;99.90;;;;;;12552255;28;20471;-38
2022/11/09 13:22:13;;;;;;;;;;;14.70;99.90;;;;;;12570096;28;19928;-38
2022/11/09 13:28:27;;;;;;;;;;;14.80;99.90;;;;;;12568325;28;19928;-39
2022/11/09 13:34:48;;;;;;;;;;;14.70;99.90;;;;;;12558988;28;19979;-38
2022/11/09 13:40:52;;;;;;;;;;;14.70;99.90;;;;;;12563881;28;20288;-38
2022/11/09 13:46:54;;;;;;;;;;;14.80;99.90;;;;;;12563990;28;19924;-38
2022/11/09 13:52:57;;;;;;;;;;;14.70;99.90;;;;;;12564756;28;19924;-38
2022/11/09 13:59:02;;;;;;;;;;;14.70;99.90;;;;;;12560782;28;19932;-38
2022/11/09 14:05:03;;;;;;;;;;;14.70;99.90;;;;;;12548377;28;19932;-40
2022/11/09 14:11:11;;;;;;;;;;;14.60;99.90;;;;;;12576267;28;20323;-38
2022/11/09 14:17:19;;;;;;;;;;;14.50;99.90;;;;;;12559606;28;19971;-38
2022/11/09 14:23:22;;;;;;;;;;;14.50;99.90;;;;;;12561674;28;19932;-38
2022/11/09 14:29:24;;;;;;;;;;;14.50;99.90;;;;;;12569368;28;19977;-39
2022/11/09 14:35:28;;;;;;;;;;;14.40;99.90;;;;;;12549272;28;19925;-38
2022/11/09 14:41:30;;;;;;;;;;;14.50;99.90;;;;;;12548528;28;19928;-38
2022/11/09 14:47:33;;;;;;;;;;;14.50;99.90;;;;;;12555032;28;20030;-38
2022/11/09 14:53:36;;;;;;;;;;;14.40;99.90;;;;;;12554304;28;20403;-38
2022/11/09 14:59:40;;;;;;;;;;;14.20;99.90;;;;;;12549251;28;19987;-38
2022/11/09 15:05:42;;;;;;;;;;;14.20;99.90;;;;;;12549909;28;20311;-38
2022/11/09 15:11:44;;;;;;;;;;;14.00;99.90;;;;;;12563009;28;19931;-38
2022/11/09 15:17:46;;;;;;;;;;;14.10;99.90;;;;;;12559560;28;19969;-38
2022/11/09 15:23:48;;;;;;;;;;;14.00;99.90;;;;;;12565234;28;19948;-38
2022/11/09 15:29:50;;;;;;;;;;;13.90;99.90;;;;;;12560000;28;19925;-38
2022/11/09 15:36:03;;;;;;;;;;;13.80;99.90;;;;;;12560712;28;19925;-38
2022/11/09 15:42:05;;;;;;;;;;;13.80;99.90;;;;;;12561440;28;19928;-38
2022/11/09 15:48:07;;;;;;;;;;;13.80;99.90;;;;;;12566643;28;19935;-38
2022/11/09 15:54:09;;;;;;;;;;;13.80;99.90;;;;;;12557369;28;19970;-38
2022/11/09 16:00:12;;;;;;;;;;;13.80;99.90;;;;;;12554075;28;20364;-38
2022/11/09 16:06:22;;;;;;;;;;;13.80;99.90;;;;;;12556113;28;19928;-38
2022/11/09 16:12:24;;;;;;;;;;;13.80;99.90;;;;;;12565200;28;20036;-38
2022/11/09 16:18:25;;;;;;;;;;;13.80;99.90;;;;;;12563016;28;20505;-38
2022/11/09 16:24:28;;;;;;;;;;;13.80;99.90;;;;;;12560873;28;19925;-38
2022/11/09 16:30:30;;;;;;;;;;;13.80;99.90;;;;;;12558050;28;19934;-38
2022/11/09 16:36:31;;;;;;;;;;;13.70;99.90;;;;;;12544936;28;19932;-39
2022/11/09 16:42:35;;;;;;;;;;;13.50;99.90;;;;;;12552076;28;20296;-38
2022/11/09 16:48:37;;;;;;;;;;;13.50;99.90;;;;;;12549828;28;20896;-38
2022/11/09 16:54:39;;;;;;;;;;;13.50;99.90;;;;;;12560976;28;19999;-38
2022/11/09 17:00:45;;;;;;;;;;;13.40;99.90;;;;;;12549718;28;19925;-38
2022/11/09 17:07:10;;;;;;;;;;;13.30;99.90;;;;;;12555913;28;20388;-38
2022/11/09 17:13:12;;;;;;;;;;;13.20;99.90;;;;;;12560111;28;19925;-38
2022/11/09 17:19:14;;;;;;;;;;;13.10;99.90;;;;;;12565665;28;19983;-38
2022/11/09 17:25:15;;;;;;;;;;;13.00;99.90;;;;;;12560882;28;19929;-38
2022/11/09 17:31:21;;;;;;;;;;;13.00;99.90;;;;;;12556076;28;19940;-38
2022/11/09 17:37:23;;;;;;;;;;;13.00;99.90;;;;;;12555910;28;19973;-38
2022/11/09 17:43:27;;;;;;;;;;;13.00;99.90;;;;;;12558043;28;19932;-38
2022/11/09 17:49:29;;;;;;;;;;;13.00;99.90;;;;;;12569982;28;19924;-38
2022/11/09 17:55:30;;;;;;;;;;;12.80;99.90;;;;;;12556763;28;19931;-38
2022/11/09 18:01:32;;;;;;;;;;;12.80;99.90;;;;;;12577367;28;19925;-38
2022/11/09 18:07:41;;;;;;;;;;;12.70;99.90;;;;;;12557753;28;19924;-38
2022/11/09 18:13:43;;;;;;;;;;;12.70;99.90;;;;;;12572905;28;20394;-38
2022/11/09 18:19:44;;;;;;;;;;;12.70;99.90;;;;;;12568570;28;19940;-38
2022/11/09 18:25:56;;;;;;;;;;;12.60;99.90;;;;;;12561630;28;19924;-38
2022/11/09 18:31:58;;;;;;;;;;;12.60;99.90;;;;;;12563935;28;19928;-38
2022/11/09 18:37:59;;;;;;;;;;;12.50;99.90;;;;;;12567464;28;20423;-38
2022/11/09 18:44:01;;;;;;;;;;;12.40;99.90;;;;;;12560168;28;20015;-38
2022/11/09 18:50:03;;;;;;;;;;;12.40;99.90;;;;;;12563518;28;19928;-38
2022/11/09 18:56:07;;;;;;;;;;;12.30;99.90;;;;;;12556880;28;19929;-38
2022/11/09 19:02:10;;;;;;;;;;;12.20;99.90;;;;;;12558590;28;19925;-38
2022/11/09 19:08:12;;;;;;;;;;;12.20;99.90;;;;;;12568758;28;20304;-38
2022/11/09 19:14:14;;;;;;;;;;;12.20;99.90;;;;;;12566611;28;20393;-39
2022/11/09 19:20:17;;;;;;;;;;;12.30;99.90;;;;;;12564752;28;20265;-38
2022/11/09 19:26:19;;;;;;;;;;;12.30;99.90;;;;;;12557173;28;20556;-38
2022/11/09 19:32:21;;;;;;;;;;;12.20;99.90;;;;;;12564368;28;19925;-38
2022/11/09 19:38:22;;;;;;;;;;;12.20;99.90;;;;;;12557464;28;20700;-38
2022/11/09 19:44:24;;;;;;;;;;;12.10;99.90;;;;;;12555133;28;20407;-38
2022/11/09 19:50:26;;;;;;;;;;;12.10;99.90;;;;;;12572085;28;20019;-38
2022/11/09 19:56:28;;;;;;;;;;;12.20;99.90;;;;;;12561089;28;20269;-38
2022/11/09 20:02:30;;;;;;;;;;;12.10;99.90;;;;;;12554264;28;19951;-38
2022/11/09 20:08:33;;;;;;;;;;;12.20;99.90;;;;;;12561435;28;20316;-38
2022/11/09 20:14:34;;;;;;;;;;;12.10;99.90;;;;;;12568677;28;19975;-38
2022/11/09 20:20:36;;;;;;;;;;;12.10;99.90;;;;;;12563039;28;20380;-39
2022/11/09 20:26:39;;;;;;;;;;;12.10;99.90;;;;;;12556369;28;19974;-38
2022/11/09 20:32:40;;;;;;;;;;;12.20;99.90;;;;;;12552366;28;19981;-38
2022/11/09 20:38:42;;;;;;;;;;;12.20;99.90;;;;;;12574591;28;19936;-38
2022/11/09 20:44:44;;;;;;;;;;;12.20;99.90;;;;;;12545715;28;19925;-38
2022/11/09 20:50:46;;;;;;;;;;;12.20;99.90;;;;;;12556524;28;20453;-37
2022/11/09 20:56:47;;;;;;;;;;;12.20;99.90;;;;;;12564081;28;19932;-38
2022/11/09 21:02:49;;;;;;;;;;;12.20;99.90;;;;;;12536046;28;20300;-39
2022/11/09 21:08:53;;;;;;;;;;;12.00;99.90;;;;;;12557313;28;19955;-38
2022/11/09 21:14:55;;;;;;;;;;;12.10;99.90;;;;;;12559237;28;19925;-38
2022/11/09 21:21:01;;;;;;;;;;;12.00;99.90;;;;;;12571150;28;19975;-38
2022/11/09 21:33:24;;;;;;;;;;;12.00;99.90;;;;;;12566289;28;20368;-38
2022/11/09 21:39:25;;;;;;;;;;;11.90;99.90;;;;;;12570032;28;19928;-38
2022/11/09 21:45:27;;;;;;;;;;;11.90;99.90;;;;;;12560343;28;19925;-38
2022/11/09 21:51:29;;;;;;;;;;;11.90;99.90;;;;;;12558104;28;19935;-38
2022/11/09 21:57:30;;;;;;;;;;;11.80;99.90;;;;;;12560773;28;20375;-38
2022/11/09 22:03:32;;;;;;;;;;;11.70;99.90;;;;;;12560712;28;19924;-38
2022/11/09 22:09:35;;;;;;;;;;;11.50;99.90;;;;;;12568572;28;20368;-38
2022/11/09 22:16:06;;;;;;;;;;;11.50;99.90;;;;;;12561305;28;19929;-38
2022/11/09 22:22:08;;;;;;;;;;;11.50;99.90;;;;;;12559402;28;19929;-38
2022/11/09 22:28:09;;;;;;;;;;;11.40;99.90;;;;;;12558508;28;19924;-38
2022/11/09 22:34:11;;;;;;;;;;;11.30;99.90;;;;;;12554668;28;19924;-38
2022/11/09 22:40:13;;;;;;;;;;;11.30;99.90;;;;;;12551114;28;19928;-38
2022/11/09 22:46:15;;;;;;;;;;;11.30;99.90;;;;;;12566415;28;19924;-38
2022/11/09 22:52:17;;;;;;;;;;;11.30;99.90;;;;;;12568585;28;19933;-38
2022/11/09 22:58:19;;;;;;;;;;;11.30;99.90;;;;;;12567898;28;19931;-38
2022/11/09 23:04:20;;;;;;;;;;;11.50;99.90;;;;;;12550569;28;19935;-38
2022/11/09 23:10:22;;;;;;;;;;;11.40;99.90;;;;;;12555075;28;19928;-38
2022/11/09 23:16:24;;;;;;;;;;;11.40;99.90;;;;;;12567293;28;19928;-38
2022/11/09 23:22:26;;;;;;;;;;;11.40;99.90;;;;;;12568678;28;19929;-39
2022/11/09 23:28:28;;;;;;;;;;;11.40;99.90;;;;;;12562927;28;20291;-38
2022/11/09 23:34:30;;;;;;;;;;;11.40;99.90;;;;;;12550673;28;19936;-38
2022/11/09 23:40:33;;;;;;;;;;;11.40;99.90;;;;;;12568138;28;20368;-37
2022/11/09 23:46:34;;;;;;;;;;;11.50;99.90;;;;;;12551788;28;19935;-36
2022/11/09 23:52:36;;;;;;;;;;;11.40;99.90;;;;;;12553869;28;19935;-36
2022/11/09 23:58:38;;;;;;;;;;;11.40;99.90;;;;;;12560166;28;19924;-37
